sensor_id;sensor_type;location;lat;lon;timestamp;P1;durP1;ratioP1;P2;durP2;ratioP2
55053;SDS011;40954;45.668;18.980;2023-01-16T00:00:56;42.20;;;28.15;;
55053;SDS011;40954;45.668;18.980;2023-01-16T00:03:22;45.88;;;29.83;;
55053;SDS011;40954;45.668;18.980;2023-01-16T00:05:48;37.88;;;27.27;;
55053;SDS011;40954;45.668;18.980;2023-01-16T00:08:14;37.10;;;25.48;;
55053;SDS011;40954;45.668;18.980;2023-01-16T00:10:40;39.63;;;26.15;;
55053;SDS011;40954;45.668;18.980;2023-01-16T00:13:06;42.60;;;28.25;;
55053;SDS011;40954;45.668;18.980;2023-01-16T00:15:35;39.25;;;26.65;;
55053;SDS011;40954;45.668;18.980;2023-01-16T00:18:01;40.35;;;27.40;;
55053;SDS011;40954;45.668;18.980;2023-01-16T00:20:27;40.90;;;27.92;;
55053;SDS011;40954;45.668;18.980;2023-01-16T00:22:53;40.67;;;28.00;;
55053;SDS011;40954;45.668;18.980;2023-01-16T00:25:19;36.75;;;26.58;;
55053;SDS011;40954;45.668;18.980;2023-01-16T00:27:45;40.22;;;28.27;;
55053;SDS011;40954;45.668;18.980;2023-01-16T00:30:11;37.50;;;26.50;;
55053;SDS011;40954;45.668;18.980;2023-01-16T00:32:37;37.10;;;25.90;;
55053;SDS011;40954;45.668;18.980;2023-01-16T00:35:03;39.92;;;27.67;;
55053;SDS011;40954;45.668;18.980;2023-01-16T00:37:29;38.83;;;27.48;;
55053;SDS011;40954;45.668;18.980;2023-01-16T00:39:55;38.72;;;26.52;;
55053;SDS011;40954;45.668;18.980;2023-01-16T00:42:21;41.92;;;29.05;;
55053;SDS011;40954;45.668;18.980;2023-01-16T00:44:46;41.10;;;29.10;;
55053;SDS011;40954;45.668;18.980;2023-01-16T00:47:12;43.88;;;30.95;;
55053;SDS011;40954;45.668;18.980;2023-01-16T00:49:38;45.03;;;31.52;;
55053;SDS011;40954;45.668;18.980;2023-01-16T00:52:03;52.22;;;34.65;;
55053;SDS011;40954;45.668;18.980;2023-01-16T00:54:29;57.22;;;38.30;;
55053;SDS011;40954;45.668;18.980;2023-01-16T00:56:55;57.17;;;37.20;;
55053;SDS011;40954;45.668;18.980;2023-01-16T00:59:20;49.03;;;34.53;;
55053;SDS011;40954;45.668;18.980;2023-01-16T01:01:46;50.17;;;35.10;;
55053;SDS011;40954;45.668;18.980;2023-01-16T01:04:12;48.92;;;33.72;;
55053;SDS011;40954;45.668;18.980;2023-01-16T01:06:38;45.75;;;31.63;;
55053;SDS011;40954;45.668;18.980;2023-01-16T01:09:04;48.38;;;33.17;;
55053;SDS011;40954;45.668;18.980;2023-01-16T01:11:30;52.80;;;35.72;;
55053;SDS011;40954;45.668;18.980;2023-01-16T01:13:56;56.13;;;35.92;;
55053;SDS011;40954;45.668;18.980;2023-01-16T01:16:22;53.70;;;34.33;;
55053;SDS011;40954;45.668;18.980;2023-01-16T01:18:48;52.00;;;34.80;;
55053;SDS011;40954;45.668;18.980;2023-01-16T01:21:14;55.35;;;37.60;;
55053;SDS011;40954;45.668;18.980;2023-01-16T01:23:40;55.35;;;37.25;;
55053;SDS011;40954;45.668;18.980;2023-01-16T01:26:12;57.05;;;38.03;;
55053;SDS011;40954;45.668;18.980;2023-01-16T01:28:40;52.97;;;36.10;;
55053;SDS011;40954;45.668;18.980;2023-01-16T01:31:07;53.15;;;35.15;;
55053;SDS011;40954;45.668;18.980;2023-01-16T01:33:37;48.08;;;32.55;;
55053;SDS011;40954;45.668;18.980;2023-01-16T01:36:03;49.95;;;34.22;;
55053;SDS011;40954;45.668;18.980;2023-01-16T01:38:30;53.10;;;33.72;;
55053;SDS011;40954;45.668;18.980;2023-01-16T01:40:55;49.60;;;32.78;;
55053;SDS011;40954;45.668;18.980;2023-01-16T01:43:21;46.40;;;31.45;;
55053;SDS011;40954;45.668;18.980;2023-01-16T01:46:03;48.95;;;32.53;;
55053;SDS011;40954;45.668;18.980;2023-01-16T01:48:30;49.58;;;32.55;;
55053;SDS011;40954;45.668;18.980;2023-01-16T01:51:05;44.97;;;30.02;;
55053;SDS011;40954;45.668;18.980;2023-01-16T01:53:41;42.70;;;30.40;;
55053;SDS011;40954;45.668;18.980;2023-01-16T01:56:12;42.90;;;32.15;;
55053;SDS011;40954;45.668;18.980;2023-01-16T01:58:45;46.38;;;32.42;;
55053;SDS011;40954;45.668;18.980;2023-01-16T02:01:16;43.03;;;31.15;;
55053;SDS011;40954;45.668;18.980;2023-01-16T02:03:43;45.30;;;32.15;;
55053;SDS011;40954;45.668;18.980;2023-01-16T02:06:14;45.55;;;31.27;;
55053;SDS011;40954;45.668;18.980;2023-01-16T02:08:44;45.60;;;30.73;;
55053;SDS011;40954;45.668;18.980;2023-01-16T02:11:56;43.53;;;30.88;;
55053;SDS011;40954;45.668;18.980;2023-01-16T02:14:15;46.78;;;31.60;;
55053;SDS011;40954;45.668;18.980;2023-01-16T02:16:41;43.58;;;30.83;;
55053;SDS011;40954;45.668;18.980;2023-01-16T02:19:31;43.95;;;31.58;;
55053;SDS011;40954;45.668;18.980;2023-01-16T02:32:17;81.05;;;45.65;;
55053;SDS011;40954;45.668;18.980;2023-01-16T02:37:16;71.70;;;43.47;;
55053;SDS011;40954;45.668;18.980;2023-01-16T02:42:45;69.05;;;41.70;;
55053;SDS011;40954;45.668;18.980;2023-01-16T02:55:56;51.97;;;33.55;;
55053;SDS011;40954;45.668;18.980;2023-01-16T02:58:28;45.07;;;31.10;;
55053;SDS011;40954;45.668;18.980;2023-01-16T03:00:58;45.50;;;29.95;;
55053;SDS011;40954;45.668;18.980;2023-01-16T03:08:55;42.05;;;28.40;;
55053;SDS011;40954;45.668;18.980;2023-01-16T03:15:22;40.90;;;28.40;;
55053;SDS011;40954;45.668;18.980;2023-01-16T03:20:41;39.55;;;27.73;;
55053;SDS011;40954;45.668;18.980;2023-01-16T03:23:22;39.60;;;28.23;;
55053;SDS011;40954;45.668;18.980;2023-01-16T03:25:59;40.47;;;28.38;;
55053;SDS011;40954;45.668;18.980;2023-01-16T03:28:31;43.38;;;29.05;;
55053;SDS011;40954;45.668;18.980;2023-01-16T03:36:54;43.40;;;29.65;;
55053;SDS011;40954;45.668;18.980;2023-01-16T03:38:58;42.35;;;29.65;;
55053;SDS011;40954;45.668;18.980;2023-01-16T03:41:27;44.78;;;29.73;;
55053;SDS011;40954;45.668;18.980;2023-01-16T03:43:59;40.50;;;28.83;;
55053;SDS011;40954;45.668;18.980;2023-01-16T03:46:33;40.80;;;28.02;;
55053;SDS011;40954;45.668;18.980;2023-01-16T03:49:10;40.40;;;27.90;;
55053;SDS011;40954;45.668;18.980;2023-01-16T03:51:43;40.10;;;27.35;;
55053;SDS011;40954;45.668;18.980;2023-01-16T03:57:00;40.05;;;28.20;;
55053;SDS011;40954;45.668;18.980;2023-01-16T03:59:34;44.33;;;30.50;;
55053;SDS011;40954;45.668;18.980;2023-01-16T04:10:17;40.83;;;27.65;;
55053;SDS011;40954;45.668;18.980;2023-01-16T04:12:38;40.38;;;28.83;;
55053;SDS011;40954;45.668;18.980;2023-01-16T04:15:08;42.40;;;32.53;;
55053;SDS011;40954;45.668;18.980;2023-01-16T04:17:35;45.33;;;33.05;;
55053;SDS011;40954;45.668;18.980;2023-01-16T04:20:03;43.95;;;30.52;;
55053;SDS011;40954;45.668;18.980;2023-01-16T04:22:30;43.70;;;30.48;;
55053;SDS011;40954;45.668;18.980;2023-01-16T04:24:57;42.92;;;30.90;;
55053;SDS011;40954;45.668;18.980;2023-01-16T04:27:25;39.30;;;28.13;;
55053;SDS011;40954;45.668;18.980;2023-01-16T04:29:51;43.78;;;29.48;;
55053;SDS011;40954;45.668;18.980;2023-01-16T04:32:17;38.72;;;27.90;;
55053;SDS011;40954;45.668;18.980;2023-01-16T04:34:42;41.45;;;28.27;;
55053;SDS011;40954;45.668;18.980;2023-01-16T04:37:09;40.58;;;28.45;;
55053;SDS011;40954;45.668;18.980;2023-01-16T04:39:38;38.03;;;27.02;;
55053;SDS011;40954;45.668;18.980;2023-01-16T04:42:05;39.78;;;27.52;;
55053;SDS011;40954;45.668;18.980;2023-01-16T04:44:31;40.85;;;27.13;;
55053;SDS011;40954;45.668;18.980;2023-01-16T04:46:56;44.15;;;29.58;;
55053;SDS011;40954;45.668;18.980;2023-01-16T04:49:22;42.85;;;30.23;;
55053;SDS011;40954;45.668;18.980;2023-01-16T04:51:48;42.03;;;28.65;;
55053;SDS011;40954;45.668;18.980;2023-01-16T04:54:15;41.97;;;28.23;;
55053;SDS011;40954;45.668;18.980;2023-01-16T04:56:42;42.03;;;27.08;;
55053;SDS011;40954;45.668;18.980;2023-01-16T04:59:08;41.67;;;27.80;;
55053;SDS011;40954;45.668;18.980;2023-01-16T05:01:34;42.70;;;27.45;;
55053;SDS011;40954;45.668;18.980;2023-01-16T05:04:02;44.78;;;29.52;;
55053;SDS011;40954;45.668;18.980;2023-01-16T05:06:28;41.85;;;27.95;;
55053;SDS011;40954;45.668;18.980;2023-01-16T05:08:54;51.92;;;29.95;;
55053;SDS011;40954;45.668;18.980;2023-01-16T05:11:20;45.50;;;29.85;;
55053;SDS011;40954;45.668;18.980;2023-01-16T05:13:46;43.25;;;29.58;;
55053;SDS011;40954;45.668;18.980;2023-01-16T05:16:12;50.45;;;29.52;;
55053;SDS011;40954;45.668;18.980;2023-01-16T05:18:38;41.30;;;28.13;;
55053;SDS011;40954;45.668;18.980;2023-01-16T05:21:04;45.28;;;32.03;;
55053;SDS011;40954;45.668;18.980;2023-01-16T05:23:30;51.75;;;33.03;;
55053;SDS011;40954;45.668;18.980;2023-01-16T05:25:58;47.08;;;32.45;;
55053;SDS011;40954;45.668;18.980;2023-01-16T05:28:24;43.78;;;29.83;;
55053;SDS011;40954;45.668;18.980;2023-01-16T05:30:50;46.83;;;30.02;;
55053;SDS011;40954;45.668;18.980;2023-01-16T05:33:17;46.45;;;31.80;;
55053;SDS011;40954;45.668;18.980;2023-01-16T05:35:44;50.25;;;32.72;;
55053;SDS011;40954;45.668;18.980;2023-01-16T05:38:10;45.85;;;32.20;;
55053;SDS011;40954;45.668;18.980;2023-01-16T05:40:36;47.03;;;32.42;;
55053;SDS011;40954;45.668;18.980;2023-01-16T05:43:03;53.47;;;32.35;;
55053;SDS011;40954;45.668;18.980;2023-01-16T05:45:28;51.50;;;33.50;;
55053;SDS011;40954;45.668;18.980;2023-01-16T05:47:54;46.67;;;31.85;;
55053;SDS011;40954;45.668;18.980;2023-01-16T05:50:20;48.50;;;31.58;;
55053;SDS011;40954;45.668;18.980;2023-01-16T05:52:46;50.42;;;33.55;;
55053;SDS011;40954;45.668;18.980;2023-01-16T05:55:11;53.97;;;34.00;;
55053;SDS011;40954;45.668;18.980;2023-01-16T05:57:37;49.95;;;32.17;;
55053;SDS011;40954;45.668;18.980;2023-01-16T06:00:03;50.20;;;32.25;;
55053;SDS011;40954;45.668;18.980;2023-01-16T06:02:30;44.42;;;29.60;;
55053;SDS011;40954;45.668;18.980;2023-01-16T06:04:56;46.80;;;31.50;;
55053;SDS011;40954;45.668;18.980;2023-01-16T06:07:22;48.75;;;32.88;;
55053;SDS011;40954;45.668;18.980;2023-01-16T06:09:47;48.92;;;33.55;;
55053;SDS011;40954;45.668;18.980;2023-01-16T06:12:14;52.30;;;32.67;;
55053;SDS011;40954;45.668;18.980;2023-01-16T06:14:41;46.28;;;31.92;;
55053;SDS011;40954;45.668;18.980;2023-01-16T06:17:07;44.70;;;31.00;;
55053;SDS011;40954;45.668;18.980;2023-01-16T06:19:33;41.75;;;29.20;;
55053;SDS011;40954;45.668;18.980;2023-01-16T06:21:59;43.65;;;28.98;;
55053;SDS011;40954;45.668;18.980;2023-01-16T06:24:25;42.17;;;28.50;;
55053;SDS011;40954;45.668;18.980;2023-01-16T06:26:51;42.42;;;27.83;;
55053;SDS011;40954;45.668;18.980;2023-01-16T06:29:17;42.08;;;26.73;;
55053;SDS011;40954;45.668;18.980;2023-01-16T06:31:43;37.78;;;26.42;;
55053;SDS011;40954;45.668;18.980;2023-01-16T06:34:09;43.90;;;28.10;;
55053;SDS011;40954;45.668;18.980;2023-01-16T06:36:35;43.25;;;28.23;;
55053;SDS011;40954;45.668;18.980;2023-01-16T06:39:01;40.80;;;27.23;;
55053;SDS011;40954;45.668;18.980;2023-01-16T06:41:27;41.97;;;29.00;;
55053;SDS011;40954;45.668;18.980;2023-01-16T06:43:53;46.00;;;28.67;;
55053;SDS011;40954;45.668;18.980;2023-01-16T06:46:19;43.05;;;28.88;;
55053;SDS011;40954;45.668;18.980;2023-01-16T06:48:45;39.60;;;27.92;;
55053;SDS011;40954;45.668;18.980;2023-01-16T06:51:11;42.58;;;27.10;;
55053;SDS011;40954;45.668;18.980;2023-01-16T06:53:37;42.60;;;27.75;;
55053;SDS011;40954;45.668;18.980;2023-01-16T06:56:03;42.90;;;28.67;;
55053;SDS011;40954;45.668;18.980;2023-01-16T06:58:29;42.72;;;27.73;;
55053;SDS011;40954;45.668;18.980;2023-01-16T07:00:55;50.30;;;31.65;;
55053;SDS011;40954;45.668;18.980;2023-01-16T07:03:21;48.15;;;32.00;;
55053;SDS011;40954;45.668;18.980;2023-01-16T07:05:47;53.50;;;34.60;;
55053;SDS011;40954;45.668;18.980;2023-01-16T07:08:13;96.25;;;56.97;;
55053;SDS011;40954;45.668;18.980;2023-01-16T07:10:40;162.20;;;96.60;;
55053;SDS011;40954;45.668;18.980;2023-01-16T07:13:06;155.30;;;90.93;;
55053;SDS011;40954;45.668;18.980;2023-01-16T07:15:32;115.07;;;69.85;;
55053;SDS011;40954;45.668;18.980;2023-01-16T07:18:17;98.15;;;59.80;;
55053;SDS011;40954;45.668;18.980;2023-01-16T07:21:02;105.70;;;61.40;;
55053;SDS011;40954;45.668;18.980;2023-01-16T07:23:48;65.55;;;39.50;;
55053;SDS011;40954;45.668;18.980;2023-01-16T07:26:15;53.60;;;32.05;;
55053;SDS011;40954;45.668;18.980;2023-01-16T07:28:44;52.22;;;31.90;;
55053;SDS011;40954;45.668;18.980;2023-01-16T07:31:10;43.60;;;30.52;;
55053;SDS011;40954;45.668;18.980;2023-01-16T07:33:36;44.33;;;30.25;;
55053;SDS011;40954;45.668;18.980;2023-01-16T07:36:02;46.45;;;30.48;;
55053;SDS011;40954;45.668;18.980;2023-01-16T07:38:28;45.22;;;29.80;;
55053;SDS011;40954;45.668;18.980;2023-01-16T07:40:55;50.10;;;32.78;;
55053;SDS011;40954;45.668;18.980;2023-01-16T07:43:21;48.22;;;31.17;;
55053;SDS011;40954;45.668;18.980;2023-01-16T07:45:47;51.88;;;30.13;;
55053;SDS011;40954;45.668;18.980;2023-01-16T07:48:26;51.30;;;32.42;;
55053;SDS011;40954;45.668;18.980;2023-01-16T07:50:53;53.53;;;31.38;;
55053;SDS011;40954;45.668;18.980;2023-01-16T07:53:19;50.50;;;32.38;;
55053;SDS011;40954;45.668;18.980;2023-01-16T07:55:50;46.40;;;30.65;;
55053;SDS011;40954;45.668;18.980;2023-01-16T07:58:17;50.42;;;31.70;;
55053;SDS011;40954;45.668;18.980;2023-01-16T08:00:43;50.03;;;32.30;;
55053;SDS011;40954;45.668;18.980;2023-01-16T08:03:09;49.83;;;31.75;;
55053;SDS011;40954;45.668;18.980;2023-01-16T08:05:36;54.85;;;32.25;;
55053;SDS011;40954;45.668;18.980;2023-01-16T08:08:02;52.70;;;31.77;;
55053;SDS011;40954;45.668;18.980;2023-01-16T08:10:28;49.05;;;31.08;;
55053;SDS011;40954;45.668;18.980;2023-01-16T08:12:54;47.03;;;29.02;;
55053;SDS011;40954;45.668;18.980;2023-01-16T08:15:20;41.17;;;28.30;;
55053;SDS011;40954;45.668;18.980;2023-01-16T08:17:46;44.92;;;31.17;;
55053;SDS011;40954;45.668;18.980;2023-01-16T08:20:12;49.42;;;31.27;;
55053;SDS011;40954;45.668;18.980;2023-01-16T08:22:45;46.50;;;30.83;;
55053;SDS011;40954;45.668;18.980;2023-01-16T08:25:11;46.47;;;30.75;;
55053;SDS011;40954;45.668;18.980;2023-01-16T08:27:37;48.72;;;31.33;;
55053;SDS011;40954;45.668;18.980;2023-01-16T08:30:04;48.90;;;30.30;;
55053;SDS011;40954;45.668;18.980;2023-01-16T08:32:30;47.42;;;30.48;;
55053;SDS011;40954;45.668;18.980;2023-01-16T08:34:56;40.78;;;29.20;;
55053;SDS011;40954;45.668;18.980;2023-01-16T08:37:22;51.70;;;32.65;;
55053;SDS011;40954;45.668;18.980;2023-01-16T08:39:48;47.72;;;31.40;;
55053;SDS011;40954;45.668;18.980;2023-01-16T08:42:14;50.00;;;31.83;;
55053;SDS011;40954;45.668;18.980;2023-01-16T08:44:59;49.33;;;30.48;;
55053;SDS011;40954;45.668;18.980;2023-01-16T08:47:43;47.72;;;31.00;;
55053;SDS011;40954;45.668;18.980;2023-01-16T08:50:28;42.45;;;27.58;;
55053;SDS011;40954;45.668;18.980;2023-01-16T08:53:13;45.47;;;28.83;;
55053;SDS011;40954;45.668;18.980;2023-01-16T08:55:39;47.55;;;30.27;;
55053;SDS011;40954;45.668;18.980;2023-01-16T08:58:05;52.65;;;29.25;;
55053;SDS011;40954;45.668;18.980;2023-01-16T09:00:31;42.78;;;28.48;;
55053;SDS011;40954;45.668;18.980;2023-01-16T09:02:58;40.28;;;27.40;;
55053;SDS011;40954;45.668;18.980;2023-01-16T09:05:26;45.67;;;28.13;;
55053;SDS011;40954;45.668;18.980;2023-01-16T09:07:52;42.78;;;28.65;;
55053;SDS011;40954;45.668;18.980;2023-01-16T09:10:18;42.35;;;28.27;;
55053;SDS011;40954;45.668;18.980;2023-01-16T09:12:44;39.63;;;27.05;;
55053;SDS011;40954;45.668;18.980;2023-01-16T09:15:29;39.17;;;26.50;;
55053;SDS011;40954;45.668;18.980;2023-01-16T09:17:55;37.35;;;26.13;;
55053;SDS011;40954;45.668;18.980;2023-01-16T09:20:21;40.03;;;25.90;;
55053;SDS011;40954;45.668;18.980;2023-01-16T09:22:47;45.72;;;29.58;;
55053;SDS011;40954;45.668;18.980;2023-01-16T09:25:13;41.80;;;28.50;;
55053;SDS011;40954;45.668;18.980;2023-01-16T09:27:39;42.95;;;29.10;;
55053;SDS011;40954;45.668;18.980;2023-01-16T09:30:05;40.08;;;27.08;;
55053;SDS011;40954;45.668;18.980;2023-01-16T09:32:31;39.63;;;25.98;;
55053;SDS011;40954;45.668;18.980;2023-01-16T09:34:58;42.03;;;26.05;;
55053;SDS011;40954;45.668;18.980;2023-01-16T09:37:24;38.42;;;25.20;;
55053;SDS011;40954;45.668;18.980;2023-01-16T09:39:50;41.45;;;27.15;;
55053;SDS011;40954;45.668;18.980;2023-01-16T09:42:38;37.80;;;24.45;;
55053;SDS011;40954;45.668;18.980;2023-01-16T09:45:25;35.33;;;24.67;;
55053;SDS011;40954;45.668;18.980;2023-01-16T09:47:53;34.42;;;23.52;;
55053;SDS011;40954;45.668;18.980;2023-01-16T09:52:47;34.60;;;23.23;;
55053;SDS011;40954;45.668;18.980;2023-01-16T09:55:34;36.28;;;23.98;;
55053;SDS011;40954;45.668;18.980;2023-01-16T09:58:22;37.63;;;24.92;;
55053;SDS011;40954;45.668;18.980;2023-01-16T10:01:01;34.25;;;23.38;;
55053;SDS011;40954;45.668;18.980;2023-01-16T10:03:27;35.70;;;24.13;;
55053;SDS011;40954;45.668;18.980;2023-01-16T10:06:06;37.22;;;25.63;;
55053;SDS011;40954;45.668;18.980;2023-01-16T10:11:13;31.98;;;22.50;;
55053;SDS011;40954;45.668;18.980;2023-01-16T10:13:49;34.35;;;23.05;;
55053;SDS011;40954;45.668;18.980;2023-01-16T10:16:20;31.90;;;22.30;;
55053;SDS011;40954;45.668;18.980;2023-01-16T10:23:58;36.45;;;23.77;;
55053;SDS011;40954;45.668;18.980;2023-01-16T10:31:45;36.95;;;25.70;;
55053;SDS011;40954;45.668;18.980;2023-01-16T10:36:41;31.15;;;22.73;;
55053;SDS011;40954;45.668;18.980;2023-01-16T10:39:09;37.55;;;23.05;;
55053;SDS011;40954;45.668;18.980;2023-01-16T10:41:38;35.15;;;24.23;;
55053;SDS011;40954;45.668;18.980;2023-01-16T10:44:34;36.67;;;25.35;;
55053;SDS011;40954;45.668;18.980;2023-01-16T10:47:25;34.67;;;23.50;;
55053;SDS011;40954;45.668;18.980;2023-01-16T10:50:10;32.58;;;23.02;;
55053;SDS011;40954;45.668;18.980;2023-01-16T10:52:36;33.78;;;23.10;;
55053;SDS011;40954;45.668;18.980;2023-01-16T10:55:03;30.33;;;21.08;;
55053;SDS011;40954;45.668;18.980;2023-01-16T10:57:29;29.30;;;20.70;;
55053;SDS011;40954;45.668;18.980;2023-01-16T11:00:04;26.60;;;18.30;;
55053;SDS011;40954;45.668;18.980;2023-01-16T11:02:37;28.00;;;19.65;;
55053;SDS011;40954;45.668;18.980;2023-01-16T11:07:48;25.25;;;16.65;;
55053;SDS011;40954;45.668;18.980;2023-01-16T11:10:14;27.63;;;18.80;;
55053;SDS011;40954;45.668;18.980;2023-01-16T11:12:40;30.85;;;19.08;;
55053;SDS011;40954;45.668;18.980;2023-01-16T11:15:26;35.65;;;22.67;;
55053;SDS011;40954;45.668;18.980;2023-01-16T11:18:18;38.25;;;23.20;;
55053;SDS011;40954;45.668;18.980;2023-01-16T11:20:54;28.88;;;19.05;;
55053;SDS011;40954;45.668;18.980;2023-01-16T11:23:21;22.00;;;17.25;;
55053;SDS011;40954;45.668;18.980;2023-01-16T11:25:49;24.60;;;16.63;;
55053;SDS011;40954;45.668;18.980;2023-01-16T11:28:36;23.58;;;17.08;;
55053;SDS011;40954;45.668;18.980;2023-01-16T11:31:02;41.38;;;28.95;;
55053;SDS011;40954;45.668;18.980;2023-01-16T11:33:34;33.25;;;24.35;;
55053;SDS011;40954;45.668;18.980;2023-01-16T11:36:02;32.57;;;26.53;;
55053;SDS011;40954;45.668;18.980;2023-01-16T11:38:31;36.45;;;26.13;;
55053;SDS011;40954;45.668;18.980;2023-01-16T11:40:59;33.05;;;22.83;;
55053;SDS011;40954;45.668;18.980;2023-01-16T11:43:26;24.55;;;18.05;;
55053;SDS011;40954;45.668;18.980;2023-01-16T11:46:45;25.65;;;18.05;;
55053;SDS011;40954;45.668;18.980;2023-01-16T11:49:11;27.30;;;16.38;;
55053;SDS011;40954;45.668;18.980;2023-01-16T11:51:39;24.02;;;15.88;;
55053;SDS011;40954;45.668;18.980;2023-01-16T11:54:10;23.52;;;15.82;;
55053;SDS011;40954;45.668;18.980;2023-01-16T12:04:24;18.17;;;15.27;;
55053;SDS011;40954;45.668;18.980;2023-01-16T12:09:29;15.55;;;12.10;;
55053;SDS011;40954;45.668;18.980;2023-01-16T12:12:08;16.13;;;11.10;;
55053;SDS011;40954;45.668;18.980;2023-01-16T12:14:55;17.13;;;12.07;;
55053;SDS011;40954;45.668;18.980;2023-01-16T12:20:27;19.33;;;11.85;;
55053;SDS011;40954;45.668;18.980;2023-01-16T12:25:28;19.00;;;12.52;;
55053;SDS011;40954;45.668;18.980;2023-01-16T12:28:05;15.00;;;11.73;;
55053;SDS011;40954;45.668;18.980;2023-01-16T12:30:47;13.90;;;9.50;;
55053;SDS011;40954;45.668;18.980;2023-01-16T12:38:47;17.20;;;11.18;;
55053;SDS011;40954;45.668;18.980;2023-01-16T12:46:44;14.65;;;9.93;;
55053;SDS011;40954;45.668;18.980;2023-01-16T12:49:20;13.23;;;8.88;;
55053;SDS011;40954;45.668;18.980;2023-01-16T12:54:35;16.05;;;11.23;;
55053;SDS011;40954;45.668;18.980;2023-01-16T12:59:38;18.58;;;11.20;;
55053;SDS011;40954;45.668;18.980;2023-01-16T13:04:42;17.35;;;12.30;;
55053;SDS011;40954;45.668;18.980;2023-01-16T13:07:15;15.55;;;11.35;;
55053;SDS011;40954;45.668;18.980;2023-01-16T13:12:17;9.55;;;8.38;;
55053;SDS011;40954;45.668;18.980;2023-01-16T13:15:06;12.85;;;10.23;;
55053;SDS011;40954;45.668;18.980;2023-01-16T13:20:10;12.85;;;9.40;;
55053;SDS011;40954;45.668;18.980;2023-01-16T13:25:40;34.50;;;17.17;;
55053;SDS011;40954;45.668;18.980;2023-01-16T13:28:25;39.03;;;22.45;;
55053;SDS011;40954;45.668;18.980;2023-01-16T13:30:55;21.42;;;15.15;;
55053;SDS011;40954;45.668;18.980;2023-01-16T13:33:22;17.92;;;12.32;;
55053;SDS011;40954;45.668;18.980;2023-01-16T13:35:58;20.92;;;14.18;;
55053;SDS011;40954;45.668;18.980;2023-01-16T13:38:32;25.17;;;17.83;;
55053;SDS011;40954;45.668;18.980;2023-01-16T13:43:35;21.23;;;13.95;;
55053;SDS011;40954;45.668;18.980;2023-01-16T13:46:22;24.30;;;16.00;;
55053;SDS011;40954;45.668;18.980;2023-01-16T13:48:51;26.38;;;17.73;;
55053;SDS011;40954;45.668;18.980;2023-01-16T13:51:18;23.25;;;16.98;;
55053;SDS011;40954;45.668;18.980;2023-01-16T13:53:51;26.75;;;18.95;;
55053;SDS011;40954;45.668;18.980;2023-01-16T13:56:21;32.45;;;22.17;;
55053;SDS011;40954;45.668;18.980;2023-01-16T13:59:05;29.80;;;20.60;;
55053;SDS011;40954;45.668;18.980;2023-01-16T14:06:45;40.72;;;27.98;;
55053;SDS011;40954;45.668;18.980;2023-01-16T14:09:22;43.10;;;29.23;;
55053;SDS011;40954;45.668;18.980;2023-01-16T14:17:21;51.17;;;33.22;;
55053;SDS011;40954;45.668;18.980;2023-01-16T14:19:52;45.63;;;29.00;;
55053;SDS011;40954;45.668;18.980;2023-01-16T14:22:20;52.58;;;34.28;;
55053;SDS011;40954;45.668;18.980;2023-01-16T14:24:48;45.55;;;29.60;;
55053;SDS011;40954;45.668;18.980;2023-01-16T14:27:16;50.38;;;31.77;;
55053;SDS011;40954;45.668;18.980;2023-01-16T14:29:49;49.83;;;31.88;;
55053;SDS011;40954;45.668;18.980;2023-01-16T14:32:22;50.30;;;30.70;;
55053;SDS011;40954;45.668;18.980;2023-01-16T14:34:53;50.80;;;33.53;;
55053;SDS011;40954;45.668;18.980;2023-01-16T14:37:33;47.97;;;33.35;;
55053;SDS011;40954;45.668;18.980;2023-01-16T14:40:02;46.95;;;30.95;;
55053;SDS011;40954;45.668;18.980;2023-01-16T14:42:30;52.08;;;32.95;;
55053;SDS011;40954;45.668;18.980;2023-01-16T14:45:23;52.88;;;31.48;;
55053;SDS011;40954;45.668;18.980;2023-01-16T14:56:51;54.72;;;35.20;;
55053;SDS011;40954;45.668;18.980;2023-01-16T14:59:31;67.47;;;44.38;;
55053;SDS011;40954;45.668;18.980;2023-01-16T15:02:11;71.03;;;47.15;;
55053;SDS011;40954;45.668;18.980;2023-01-16T15:07:48;80.53;;;51.17;;
55053;SDS011;40954;45.668;18.980;2023-01-16T15:12:49;87.50;;;56.08;;
55053;SDS011;40954;45.668;18.980;2023-01-16T15:15:22;103.13;;;65.07;;
55053;SDS011;40954;45.668;18.980;2023-01-16T15:17:49;115.63;;;71.93;;
55053;SDS011;40954;45.668;18.980;2023-01-16T15:20:35;104.35;;;62.83;;
55053;SDS011;40954;45.668;18.980;2023-01-16T15:25:59;84.85;;;53.95;;
55053;SDS011;40954;45.668;18.980;2023-01-16T15:31:06;72.45;;;45.85;;
55053;SDS011;40954;45.668;18.980;2023-01-16T15:33:34;92.50;;;58.55;;
55053;SDS011;40954;45.668;18.980;2023-01-16T15:36:35;100.63;;;62.33;;
55053;SDS011;40954;45.668;18.980;2023-01-16T15:41:42;73.60;;;44.17;;
55053;SDS011;40954;45.668;18.980;2023-01-16T15:44:27;75.28;;;46.67;;
55053;SDS011;40954;45.668;18.980;2023-01-16T15:47:25;58.60;;;35.67;;
55053;SDS011;40954;45.668;18.980;2023-01-16T15:52:29;43.53;;;29.08;;
55053;SDS011;40954;45.668;18.980;2023-01-16T15:54:56;45.03;;;32.40;;
55053;SDS011;40954;45.668;18.980;2023-01-16T15:57:22;49.30;;;32.08;;
55053;SDS011;40954;45.668;18.980;2023-01-16T15:59:49;54.58;;;34.15;;
55053;SDS011;40954;45.668;18.980;2023-01-16T16:02:16;59.13;;;36.17;;
55053;SDS011;40954;45.668;18.980;2023-01-16T16:04:43;54.63;;;36.15;;
55053;SDS011;40954;45.668;18.980;2023-01-16T16:07:10;66.75;;;41.67;;
55053;SDS011;40954;45.668;18.980;2023-01-16T16:09:36;68.30;;;43.10;;
55053;SDS011;40954;45.668;18.980;2023-01-16T16:12:03;72.60;;;44.83;;
55053;SDS011;40954;45.668;18.980;2023-01-16T16:14:34;69.28;;;43.88;;
55053;SDS011;40954;45.668;18.980;2023-01-16T16:17:22;78.35;;;48.60;;
55053;SDS011;40954;45.668;18.980;2023-01-16T16:22:52;78.60;;;47.95;;
55053;SDS011;40954;45.668;18.980;2023-01-16T16:25:25;88.65;;;53.92;;
55053;SDS011;40954;45.668;18.980;2023-01-16T16:30:25;108.18;;;66.00;;
55053;SDS011;40954;45.668;18.980;2023-01-16T16:32:52;103.72;;;66.85;;
55053;SDS011;40954;45.668;18.980;2023-01-16T16:35:39;101.32;;;67.13;;
55053;SDS011;40954;45.668;18.980;2023-01-16T16:38:04;98.93;;;64.88;;
55053;SDS011;40954;45.668;18.980;2023-01-16T16:40:30;97.13;;;64.53;;
55053;SDS011;40954;45.668;18.980;2023-01-16T16:42:59;112.95;;;71.63;;
55053;SDS011;40954;45.668;18.980;2023-01-16T16:50:36;105.88;;;68.00;;
55053;SDS011;40954;45.668;18.980;2023-01-16T16:55:33;97.93;;;67.85;;
55053;SDS011;40954;45.668;18.980;2023-01-16T16:58:00;101.95;;;67.45;;
55053;SDS011;40954;45.668;18.980;2023-01-16T17:00:27;106.30;;;69.03;;
55053;SDS011;40954;45.668;18.980;2023-01-16T17:03:10;102.78;;;71.35;;
55053;SDS011;40954;45.668;18.980;2023-01-16T17:05:37;88.03;;;60.05;;
55053;SDS011;40954;45.668;18.980;2023-01-16T17:08:03;96.63;;;65.22;;
55053;SDS011;40954;45.668;18.980;2023-01-16T17:10:30;98.03;;;65.40;;
55053;SDS011;40954;45.668;18.980;2023-01-16T17:12:56;108.25;;;69.57;;
55053;SDS011;40954;45.668;18.980;2023-01-16T17:15:23;108.38;;;72.40;;